Time;durP1;ratioP1;P1;durP2;ratioP2;P2;SDS_P1;SDS_P2;PMS_P1;PMS_P2;Temp;Humidity;BMP_temperature;BMP_pressure;BME280_temperature;BME280_humidity;BME280_pressure;Samples;Min_cycle;Max_cycle;Signal;HPM_P1;HPM_P2
2023/08/14 00:00:21;;;;;;;;;;;22.30;58.60;;;18.55;100.00;95630.00;4973430;28;19916;-52
2023/08/14 00:02:47;;;;;;;;;;;22.30;58.60;;;18.57;100.00;95630.47;4971891;28;19916;-56
2023/08/14 00:05:13;;;;;;;;;;;22.30;58.60;;;18.55;100.00;95631.88;4973899;28;20028;-50
2023/08/14 00:07:38;;;;;;;;;;;22.40;58.60;;;18.58;100.00;95640.13;4972450;28;19910;-55
2023/08/14 00:10:05;;;;;;;;;;;22.40;59.30;;;18.56;100.00;95636.97;4973509;28;20327;-48
2023/08/14 00:12:30;;;;;;;;;;;22.40;58.70;;;18.56;100.00;95633.50;4973182;28;19956;-48
2023/08/14 00:14:56;;;;;;;;;;;22.40;58.70;;;18.60;100.00;95626.34;4960718;28;19944;-49
2023/08/14 00:17:22;;;;;;;;;;;22.40;58.70;;;18.59;100.00;95630.16;4973314;28;19910;-49
2023/08/14 00:19:48;;;;;;;;;;;22.40;58.70;;;18.59;100.00;95638.25;4972102;28;19960;-54
2023/08/14 00:22:13;;;;;;;;;;;22.40;58.70;;;18.58;100.00;95642.03;4973501;28;19914;-48
2023/08/14 00:24:40;;;;;;;;;;;22.40;58.70;;;18.57;100.00;95637.78;4972704;28;19920;-50
2023/08/14 00:27:06;;;;;;;;;;;22.40;58.70;;;18.52;100.00;95627.94;4974838;28;20011;-49
2023/08/14 00:29:31;;;;;;;;;;;22.40;58.80;;;18.52;100.00;95621.72;4978648;28;20004;-53
2023/08/14 00:31:57;;;;;;;;;;;22.40;58.80;;;18.56;100.00;95634.28;4972053;28;19910;-50
2023/08/14 00:34:23;;;;;;;;;;;22.40;58.80;;;18.58;100.00;95633.94;4972738;28;19976;-49
2023/08/14 00:36:49;;;;;;;;;;;22.40;58.80;;;18.58;100.00;95634.75;4973167;28;19910;-51
2023/08/14 00:39:15;;;;;;;;;;;22.40;58.80;;;18.59;100.00;95627.47;4971721;28;19910;-48
2023/08/14 00:41:40;;;;;;;;;;;22.40;58.90;;;18.58;100.00;95623.94;4973025;28;19910;-51
2023/08/14 00:44:06;;;;;;;;;;;22.40;58.90;;;18.52;100.00;95625.25;4971170;28;19949;-48
2023/08/14 00:46:32;;;;;;;;;;;22.40;59.00;;;18.57;100.00;95629.69;4972989;28;19910;-52
2023/08/14 00:48:59;;;;;;;;;;;22.40;58.90;;;18.60;100.00;95634.44;4971597;28;20016;-50
2023/08/14 00:51:26;;;;;;;;;;;22.40;58.90;;;18.59;100.00;95638.25;4967119;28;19945;-48
2023/08/14 00:53:54;;;;;;;;;;;22.40;58.90;;;18.57;100.00;95637.78;4998096;28;20393;-48
2023/08/14 00:56:21;;;;;;;;;;;22.40;58.90;;;18.52;100.00;95641.41;4971663;28;19910;-56
2023/08/14 00:58:49;;;;;;;;;;;22.40;58.90;;;18.54;100.00;95627.59;4972583;28;19914;-53
2023/08/14 01:01:17;;;;;;;;;;;22.40;58.90;;;18.56;100.00;95615.41;4972905;28;19916;-50
2023/08/14 01:03:43;;;;;;;;;;;22.40;59.00;;;18.56;100.00;95611.91;4971280;28;19916;-48
2023/08/14 01:06:09;;;;;;;;;;;22.40;59.00;;;18.57;100.00;95610.78;4971402;28;19957;-51
2023/08/14 01:08:36;;;;;;;;;;;22.40;59.00;;;18.57;100.00;95608.88;4971040;28;19953;-48
2023/08/14 01:11:24;;;;;;;;;;;22.40;59.10;;;18.57;100.00;95600.00;4972598;28;19916;-49
2023/08/14 01:14:23;;;;;;;;;;;22.40;59.10;;;18.59;100.00;95601.28;4971044;28;20327;-49
2023/08/14 01:17:01;;;;;;;;;;;22.40;59.20;;;18.63;100.00;95613.03;4971042;28;19910;-52
2023/08/14 01:19:34;;;;;;;;;;;22.40;59.20;;;18.64;100.00;95613.81;4971383;28;19913;-56
2023/08/14 01:22:23;;;;;;;;;;;22.40;59.20;;;18.65;100.00;95607.34;4971820;28;19910;-49
2023/08/14 01:25:24;;;;;;;;;;;22.40;59.20;;;18.65;100.00;95591.94;4971332;28;19964;-48
2023/08/14 01:27:51;;;;;;;;;;;22.40;59.20;;;18.64;100.00;95590.31;4980198;28;19910;-51
2023/08/14 01:30:17;;;;;;;;;;;22.40;59.20;;;18.65;100.00;95589.25;4971045;28;19909;-49
2023/08/14 01:32:43;;;;;;;;;;;22.40;59.30;;;18.68;100.00;95598.59;4970947;28;19962;-53
2023/08/14 01:35:09;;;;;;;;;;;22.40;59.30;;;18.70;100.00;95609.84;4972421;28;19957;-51
2023/08/14 01:37:40;;;;;;;;;;;22.50;59.40;;;18.68;100.00;95610.19;4970013;28;19910;-48
2023/08/14 01:40:29;;;;;;;;;;;22.50;59.40;;;18.68;100.00;95604.00;4975521;28;20002;-52
2023/08/14 01:43:04;;;;;;;;;;;22.50;59.40;;;18.63;100.00;95596.06;4975552;28;19917;-50
2023/08/14 01:45:34;;;;;;;;;;;22.40;59.90;;;18.64;100.00;95586.84;4973769;28;20380;-51
2023/08/14 01:48:06;;;;;;;;;;;22.40;59.20;;;18.60;100.00;95585.88;4976032;28;19916;-50
2023/08/14 01:50:34;;;;;;;;;;;22.40;59.30;;;18.57;100.00;95583.81;4973523;28;20272;-52
2023/08/14 01:53:00;;;;;;;;;;;22.40;59.30;;;18.53;100.00;95591.75;4974317;28;20376;-50
2023/08/14 01:55:26;;;;;;;;;;;22.30;59.30;;;18.49;100.00;95596.19;4975845;28;19916;-51
2023/08/14 01:57:52;;;;;;;;;;;22.30;59.40;;;18.45;100.00;95584.44;4974871;28;19909;-52
2023/08/14 02:00:19;;;;;;;;;;;22.20;59.40;;;18.34;100.00;95583.94;4975610;28;19917;-53
2023/08/14 02:02:46;;;;;;;;;;;22.20;59.40;;;18.35;100.00;95577.44;4974457;28;19909;-49
2023/08/14 02:05:11;;;;;;;;;;;22.20;59.50;;;18.36;100.00;95580.91;4975649;28;19921;-51
2023/08/14 02:07:37;;;;;;;;;;;22.20;59.50;;;18.34;100.00;95577.75;4973457;28;19910;-49
2023/08/14 02:10:03;;;;;;;;;;;22.10;59.50;;;18.25;100.00;95570.44;4974412;28;19928;-53
2023/08/14 02:12:30;;;;;;;;;;;22.10;59.60;;;18.25;100.00;95573.13;4976461;28;19909;-50
2023/08/14 02:14:57;;;;;;;;;;;22.10;59.60;;;18.24;100.00;95573.47;4971250;28;19910;-52
2023/08/14 02:17:23;;;;;;;;;;;22.00;59.60;;;18.18;100.00;95566.63;4976007;28;19910;-55
2023/08/14 02:19:49;;;;;;;;;;;22.00;59.70;;;18.14;100.00;95569.13;4970393;28;19921;-52
2023/08/14 02:22:14;;;;;;;;;;;22.00;59.80;;;18.10;100.00;95552.00;4975568;28;20360;-51
2023/08/14 02:24:40;;;;;;;;;;;22.00;59.80;;;18.08;100.00;95542.63;4975240;28;19917;-55
2023/08/14 02:27:06;;;;;;;;;;;21.90;59.80;;;18.04;100.00;95545.94;4973386;28;19928;-50
2023/08/14 02:29:32;;;;;;;;;;;21.90;59.80;;;18.03;100.00;95546.28;4980382;28;19917;-49
2023/08/14 02:31:57;;;;;;;;;;;21.90;59.90;;;18.01;100.00;95554.66;4974546;28;19910;-53
2023/08/14 02:34:45;;;;;;;;;;;21.90;60.00;;;18.01;100.00;95557.34;4975173;28;19921;-51
2023/08/14 02:37:12;;;;;;;;;;;21.80;60.00;;;18.00;100.00;95552.28;4966716;28;19913;-50
2023/08/14 02:39:38;;;;;;;;;;;21.80;60.10;;;17.99;100.00;95558.78;4972295;28;20339;-51
2023/08/14 02:42:04;;;;;;;;;;;21.80;60.20;;;17.96;100.00;95560.22;4975152;28;19945;-52
2023/08/14 02:44:30;;;;;;;;;;;21.80;60.20;;;17.96;100.00;95560.22;4973866;28;20415;-50
2023/08/14 02:46:58;;;;;;;;;;;21.80;60.30;;;17.93;100.00;95547.34;4975056;28;19953;-50
2023/08/14 02:49:24;;;;;;;;;;;21.80;60.30;;;17.97;100.00;95555.59;4974230;28;19914;-50
2023/08/14 02:51:50;;;;;;;;;;;21.80;60.40;;;17.99;100.00;95550.72;4972897;28;19913;-49
2023/08/14 02:54:16;;;;;;;;;;;21.80;60.50;;;17.99;100.00;95548.81;4974857;28;20037;-56
2023/08/14 02:56:42;;;;;;;;;;;21.90;60.60;;;18.00;100.00;95546.91;4973925;28;20390;-48
2023/08/14 02:59:08;;;;;;;;;;;21.90;60.60;;;17.99;100.00;95537.25;4974143;28;19916;-51
2023/08/14 03:01:33;;;;;;;;;;;21.80;60.60;;;18.01;100.00;95535.00;4971548;28;20347;-55
2023/08/14 03:03:59;;;;;;;;;;;21.80;60.70;;;18.02;100.00;95536.63;4974943;28;19909;-55
2023/08/14 03:06:29;;;;;;;;;;;21.80;60.70;;;18.06;100.00;95534.09;4971485;28;19917;-52
2023/08/14 03:08:55;;;;;;;;;;;21.90;60.90;;;18.09;100.00;95530.75;4973123;28;19993;-53
2023/08/14 03:11:22;;;;;;;;;;;21.90;61.00;;;18.14;100.00;95526.00;4974418;28;19910;-53
2023/08/14 03:13:47;;;;;;;;;;;21.90;61.10;;;18.18;100.00;95535.06;4973396;28;20435;-53
2023/08/14 03:16:13;;;;;;;;;;;21.90;61.20;;;18.20;100.00;95526.66;4974166;28;19918;-54
2023/08/14 03:18:39;;;;;;;;;;;21.90;61.20;;;18.24;100.00;95541.09;4974370;28;19909;-51
2023/08/14 03:21:05;;;;;;;;;;;21.90;61.30;;;18.29;100.00;95537.44;4973450;28;19910;-54
2023/08/14 03:23:30;;;;;;;;;;;22.00;61.50;;;18.35;100.00;95542.38;4974329;28;20377;-55
2023/08/14 03:25:56;;;;;;;;;;;22.00;61.50;;;18.36;100.00;95543.16;4973061;28;20262;-52
2023/08/14 03:28:22;;;;;;;;;;;22.00;61.50;;;18.36;100.00;95548.56;4974101;28;19917;-53
2023/08/14 03:30:50;;;;;;;;;;;22.00;61.50;;;18.35;100.00;95545.06;4974151;28;19972;-55
2023/08/14 03:33:15;;;;;;;;;;;22.10;61.50;;;18.33;100.00;95547.28;4973194;28;19955;-55
2023/08/14 03:35:41;;;;;;;;;;;22.10;61.50;;;18.31;100.00;95537.94;4973967;28;19914;-55
2023/08/14 03:38:07;;;;;;;;;;;22.10;61.50;;;18.27;100.00;95541.28;4973225;28;19956;-55
2023/08/14 03:40:33;;;;;;;;;;;22.10;61.50;;;18.25;100.00;95543.47;4974044;28;19917;-55
2023/08/14 03:42:58;;;;;;;;;;;22.10;61.50;;;18.24;100.00;95547.28;4974131;28;19916;-48
2023/08/14 03:45:24;;;;;;;;;;;22.10;61.50;;;18.21;100.00;95549.81;4972556;28;19922;-48
2023/08/14 03:47:50;;;;;;;;;;;22.10;61.50;;;18.21;100.00;95547.91;4973939;28;19917;-50
2023/08/14 03:50:16;;;;;;;;;;;22.10;61.50;;;18.20;100.00;95543.63;4972998;28;19972;-53
2023/08/14 03:52:42;;;;;;;;;;;22.10;61.70;;;18.19;100.00;95538.53;4974120;28;19979;-52
2023/08/14 03:55:08;;;;;;;;;;;22.10;61.60;;;18.21;100.00;95539.81;4973751;28;19946;-52
2023/08/14 03:57:34;;;;;;;;;;;22.10;61.70;;;18.20;100.00;95540.91;4979978;28;20412;-56
2023/08/14 04:00:00;;;;;;;;;;;22.10;61.70;;;18.20;100.00;95540.13;4974226;28;20001;-55
2023/08/14 04:02:26;;;;;;;;;;;22.10;61.80;;;18.15;100.00;95537.59;4972174;28;19910;-56
2023/08/14 04:04:52;;;;;;;;;;;22.10;61.80;;;18.16;100.00;95531.88;4973299;28;19913;-56
2023/08/14 04:07:19;;;;;;;;;;;22.10;61.90;;;18.23;100.00;95539.50;4972462;28;26788;-55
2023/08/14 04:09:45;;;;;;;;;;;22.10;62.00;;;18.28;100.00;95539.38;4972493;28;20000;-52
2023/08/14 04:12:11;;;;;;;;;;;22.10;62.10;;;18.29;100.00;95542.84;4973851;28;19920;-48
2023/08/14 04:14:36;;;;;;;;;;;22.10;62.10;;;18.26;100.00;95538.88;4972343;28;20026;-55
2023/08/14 04:17:03;;;;;;;;;;;22.10;62.10;;;18.26;100.00;95549.66;4973089;28;20308;-52
2023/08/14 04:19:29;;;;;;;;;;;22.10;62.10;;;18.23;100.00;95550.28;4972479;28;19917;-52
2023/08/14 04:21:55;;;;;;;;;;;22.00;62.10;;;18.20;100.00;95562.47;4962608;28;19913;-50
2023/08/14 04:24:20;;;;;;;;;;;22.00;62.10;;;18.17;100.00;95552.31;4973202;28;19909;-48
2023/08/14 04:26:46;;;;;;;;;;;22.00;62.20;;;18.13;100.00;95551.38;4973185;28;19932;-49
2023/08/14 04:29:12;;;;;;;;;;;22.00;62.20;;;18.10;100.00;95546.59;4977946;28;19969;-50
2023/08/14 04:31:40;;;;;;;;;;;22.00;62.30;;;18.11;100.00;95548.19;4971884;28;19957;-53
2023/08/14 04:34:08;;;;;;;;;;;22.00;62.40;;;18.12;100.00;95544.41;4972985;28;19914;-55
2023/08/14 04:36:35;;;;;;;;;;;22.00;62.50;;;18.11;100.00;95550.09;4972613;28;20499;-52
2023/08/14 04:39:04;;;;;;;;;;;22.00;62.50;;;18.10;100.00;95545.81;4971941;28;19909;-51
2023/08/14 04:41:30;;;;;;;;;;;22.00;62.60;;;18.07;100.00;95539.16;4972952;28;20269;-54
2023/08/14 04:43:56;;;;;;;;;;;22.00;62.60;;;18.06;100.00;95542.97;4971856;28;20349;-53
2023/08/14 04:46:33;;;;;;;;;;;22.00;62.60;;;18.08;100.00;95539.94;4972309;28;19937;-54
2023/08/14 04:49:00;;;;;;;;;;;22.00;62.70;;;18.09;100.00;95538.84;4972887;28;19910;-50
2023/08/14 04:51:27;;;;;;;;;;;22.00;62.70;;;18.14;100.00;95534.09;4971832;28;19917;-53
2023/08/14 04:53:58;;;;;;;;;;;22.00;62.80;;;18.19;100.00;95533.94;4972595;28;19947;-55
2023/08/14 04:56:25;;;;;;;;;;;22.10;62.90;;;18.23;100.00;95526.81;4971549;28;20388;-54
2023/08/14 04:58:52;;;;;;;;;;;22.10;62.90;;;18.26;100.00;95528.88;4985101;28;20388;-50
2023/08/14 05:01:18;;;;;;;;;;;22.20;62.90;;;18.32;100.00;95528.75;4972496;28;20337;-50
2023/08/14 05:03:44;;;;;;;;;;;22.30;63.00;;;18.36;100.00;95527.00;4971831;28;20013;-49
2023/08/14 05:06:10;;;;;;;;;;;22.30;62.90;;;18.40;100.00;95530.66;4972040;28;20012;-55
2023/08/14 05:08:36;;;;;;;;;;;22.40;62.90;;;18.47;100.00;95536.38;4971250;28;19922;-51
2023/08/14 05:11:02;;;;;;;;;;;22.50;62.90;;;18.52;100.00;95530.03;4972655;28;19910;-54
2023/08/14 05:13:27;;;;;;;;;;;22.60;62.90;;;18.60;100.00;95527.34;4970514;28;19909;-52
2023/08/14 05:15:53;;;;;;;;;;;22.70;62.90;;;18.68;100.00;95525.78;4971227;28;20001;-49
2023/08/14 05:18:19;;;;;;;;;;;22.70;62.80;;;18.80;100.00;95533.25;4972531;28;19916;-48
2023/08/14 05:20:50;;;;;;;;;;;22.80;62.70;;;18.89;100.00;95539.44;4971754;28;19909;-55
2023/08/14 05:23:16;;;;;;;;;;;22.90;62.70;;;19.01;100.00;95541.50;4972335;28;19910;-53
2023/08/14 05:25:44;;;;;;;;;;;23.10;62.60;;;19.15;100.00;95539.41;4971079;28;19957;-50
2023/08/14 05:28:11;;;;;;;;;;;23.20;62.40;;;19.30;100.00;95536.19;4984269;28;19932;-53
2023/08/14 05:30:45;;;;;;;;;;;23.40;62.30;;;19.51;100.00;95530.91;4972501;28;19921;-51
2023/08/14 05:33:12;;;;;;;;;;;23.60;62.00;;;19.74;100.00;95525.28;4966917;28;19916;-55
2023/08/14 05:35:38;;;;;;;;;;;23.90;61.80;;;19.89;100.00;95530.16;4971576;28;19964;-54
2023/08/14 05:38:03;;;;;;;;;;;24.00;61.60;;;20.14;100.00;95525.75;4971221;28;19914;-53
2023/08/14 05:40:29;;;;;;;;;;;24.20;61.20;;;20.42;100.00;95530.66;4972178;28;19909;-50
2023/08/14 05:43:10;;;;;;;;;;;24.60;61.10;;;20.69;100.00;95532.91;4972160;28;19910;-51
2023/08/14 05:45:44;;;;;;;;;;;24.90;60.90;;;20.93;98.58;95531.41;4970946;28;20311;-53
2023/08/14 05:48:12;;;;;;;;;;;25.20;60.50;;;21.08;96.15;95519.97;4969544;28;20008;-51
2023/08/14 05:50:38;;;;;;;;;;;25.40;60.10;;;21.24;95.23;95518.22;4970410;28;19914;-54
2023/08/14 05:53:07;;;;;;;;;;;25.70;59.80;;;21.27;93.85;95517.56;4969797;28;19910;-53
2023/08/14 05:55:38;;;;;;;;;;;25.90;59.50;;;21.43;93.27;95525.06;4967409;28;19948;-52
2023/08/14 05:58:08;;;;;;;;;;;26.00;59.30;;;21.66;91.30;95518.13;4969325;28;19909;-53
2023/08/14 06:00:36;;;;;;;;;;;26.20;59.10;;;21.90;89.43;95520.06;4970004;28;20019;-52
2023/08/14 06:03:03;;;;;;;;;;;26.40;58.90;;;22.04;88.39;95513.53;5002172;28;19914;-51
2023/08/14 06:05:28;;;;;;;;;;;26.60;58.70;;;22.23;88.20;95516.47;4971273;28;20012;-55
2023/08/14 06:07:55;;;;;;;;;;;26.80;58.50;;;22.29;86.47;95515.13;4966846;28;19952;-54
2023/08/14 06:10:22;;;;;;;;;;;27.00;58.30;;;22.49;86.30;95513.38;4965852;28;19979;-51
2023/08/14 06:12:49;;;;;;;;;;;27.20;58.20;;;22.74;84.84;95510.63;4969664;28;19917;-49
2023/08/14 06:15:18;;;;;;;;;;;27.40;58.00;;;23.01;83.52;95519.97;4969860;28;20300;-49
2023/08/14 06:17:44;;;;;;;;;;;27.60;57.80;;;23.26;81.56;95523.34;4972045;28;20296;-48
2023/08/14 06:20:11;;;;;;;;;;;27.80;57.70;;;23.40;80.36;95514.78;4968538;28;19914;-49
2023/08/14 06:22:46;;;;;;;;;;;28.10;57.50;;;23.59;79.06;95506.72;4969637;28;20392;-55
2023/08/14 06:25:14;;;;;;;;;;;28.40;57.30;;;23.76;77.60;95500.22;4971554;28;19987;-51
2023/08/14 06:27:40;;;;;;;;;;;28.60;56.90;;;23.76;78.22;95500.22;4973891;28;19909;-54
2023/08/14 06:30:08;;;;;;;;;;;28.80;56.60;;;23.94;78.02;95500.63;4974491;28;20402;-53
2023/08/14 06:32:35;;;;;;;;;;;29.00;56.40;;;23.98;76.49;95501.53;4974475;28;19996;-54
2023/08/14 06:35:02;;;;;;;;;;;29.20;56.20;;;24.10;76.78;95501.41;4972902;28;19981;-52
2023/08/14 06:37:28;;;;;;;;;;;29.40;55.80;;;24.41;76.24;95500.59;4975086;28;19931;-55
2023/08/14 06:39:54;;;;;;;;;;;29.60;55.70;;;24.63;73.85;95507.31;4974060;28;19955;-51
2023/08/14 06:42:19;;;;;;;;;;;29.80;55.40;;;24.84;73.36;95517.84;4975183;28;20044;-49
2023/08/14 06:44:45;;;;;;;;;;;30.00;55.30;;;25.08;72.41;95524.94;4974494;28;19967;-53
2023/08/14 06:47:12;;;;;;;;;;;30.30;55.10;;;25.46;70.72;95515.19;4975124;28;19914;-53
2023/08/14 06:49:37;;;;;;;;;;;30.50;54.80;;;25.64;69.63;95512.78;4973991;28;19910;-52
2023/08/14 06:52:04;;;;;;;;;;;30.80;54.70;;;25.67;69.76;95508.53;4974974;28;20369;-52
2023/08/14 06:54:30;;;;;;;;;;;31.10;54.40;;;25.86;68.24;95513.19;4975174;28;20367;-55
2023/08/14 06:56:56;;;;;;;;;;;31.40;54.00;;;26.09;66.95;95508.47;4973548;28;19909;-50
2023/08/14 06:59:21;;;;;;;;;;;31.50;53.50;;;26.21;65.51;95510.22;4974612;28;20395;-52
2023/08/14 07:01:47;;;;;;;;;;;31.70;53.10;;;26.25;64.94;95502.88;4971763;28;19917;-51
2023/08/14 07:04:13;;;;;;;;;;;31.80;52.60;;;26.42;63.83;95505.09;4972969;28;19913;-52
2023/08/14 07:06:39;;;;;;;;;;;31.90;52.20;;;26.24;64.56;95502.09;4974467;28;19910;-49
2023/08/14 07:09:05;;;;;;;;;;;32.00;52.00;;;26.29;65.20;95504.50;4973487;28;19918;-49
2023/08/14 07:11:36;;;;;;;;;;;32.00;51.70;;;26.59;63.92;95506.50;4974753;28;19910;-51
2023/08/14 07:14:03;;;;;;;;;;;32.20;51.60;;;26.88;63.01;95496.72;4970079;28;19910;-56
2023/08/14 07:16:28;;;;;;;;;;;32.30;51.40;;;27.20;61.86;95505.34;4966622;28;19909;-54
2023/08/14 07:18:54;;;;;;;;;;;32.40;51.20;;;27.40;61.01;95511.41;4974545;28;19910;-54
2023/08/14 07:21:20;;;;;;;;;;;32.60;50.90;;;27.47;60.31;95512.66;4971240;28;19917;-57
2023/08/14 07:23:46;;;;;;;;;;;32.80;50.70;;;27.16;60.73;95504.50;4974445;28;19910;-55
2023/08/14 07:26:12;;;;;;;;;;;32.90;50.50;;;26.97;61.26;95507.38;4972919;28;20315;-52
2023/08/14 07:28:41;;;;;;;;;;;33.00;50.20;;;27.42;60.61;95509.09;4985662;28;19956;-56
2023/08/14 07:31:08;;;;;;;;;;;33.10;50.00;;;27.64;60.61;95509.28;4974441;28;19913;-53
2023/08/14 07:33:34;;;;;;;;;;;33.30;49.90;;;28.04;58.76;95513.97;4973274;28;19945;-57
2023/08/14 07:36:00;;;;;;;;;;;33.50;49.80;;;28.28;57.66;95512.59;4973541;28;20012;-55
2023/08/14 07:38:26;;;;;;;;;;;33.70;49.50;;;28.53;56.02;95510.06;4973318;28;20381;-53
2023/08/14 07:40:54;;;;;;;;;;;33.80;49.20;;;28.97;55.96;95513.81;4974084;28;19944;-57
2023/08/14 07:43:21;;;;;;;;;;;34.00;48.90;;;29.12;54.32;95512.72;4974180;28;19909;-55
2023/08/14 07:45:47;;;;;;;;;;;34.30;48.80;;;29.37;54.28;95512.81;4972727;28;19914;-57
2023/08/14 07:48:13;;;;;;;;;;;34.60;48.60;;;29.70;53.74;95525.44;4974317;28;20335;-51
2023/08/14 07:50:38;;;;;;;;;;;34.80;48.20;;;30.00;52.11;95516.06;4972712;28;19918;-52
2023/08/14 07:53:04;;;;;;;;;;;35.10;48.00;;;30.26;51.26;95523.16;4973915;28;19910;-52
2023/08/14 07:55:30;;;;;;;;;;;35.30;47.60;;;30.36;49.38;95522.34;4973563;28;19913;-49
2023/08/14 07:57:56;;;;;;;;;;;35.60;47.40;;;30.28;50.16;95517.28;4972838;28;19910;-54
2023/08/14 08:00:22;;;;;;;;;;;35.80;47.10;;;30.47;50.30;95516.84;4972555;28;19936;-53
2023/08/14 08:02:48;;;;;;;;;;;36.10;46.80;;;30.77;49.60;95513.66;4972669;28;19910;-54
2023/08/14 08:05:15;;;;;;;;;;;36.40;46.50;;;31.00;47.93;95518.72;4973476;28;20025;-56
2023/08/14 08:07:41;;;;;;;;;;;36.60;46.20;;;31.16;48.38;95523.75;4972755;28;19913;-56
2023/08/14 08:10:07;;;;;;;;;;;36.80;46.00;;;31.42;47.58;95510.69;4972036;28;19925;-56
2023/08/14 08:12:33;;;;;;;;;;;37.10;45.70;;;31.75;47.11;95528.59;4973489;28;19914;-57
2023/08/14 08:14:59;;;;;;;;;;;37.40;45.40;;;32.02;45.47;95531.56;4971976;28;20004;-58
2023/08/14 08:17:25;;;;;;;;;;;37.70;45.00;;;32.32;44.34;95517.16;4960492;28;20075;-52
2023/08/14 08:19:51;;;;;;;;;;;37.90;44.70;;;32.22;44.19;95518.03;4972400;28;20428;-54
2023/08/14 08:22:17;;;;;;;;;;;38.20;44.40;;;32.34;43.77;95525.00;4972234;28;19983;-57
2023/08/14 08:24:43;;;;;;;;;;;38.30;43.70;;;32.45;43.71;95529.25;4973170;28;19953;-56
2023/08/14 08:27:10;;;;;;;;;;;38.40;43.50;;;32.55;43.42;95529.56;4966881;28;20280;-55
2023/08/14 08:29:36;;;;;;;;;;;38.50;43.30;;;32.81;43.44;95528.91;4972918;28;20418;-56
2023/08/14 08:32:01;;;;;;;;;;;38.70;43.10;;;33.21;43.60;95525.72;4972328;28;20385;-50
2023/08/14 08:34:27;;;;;;;;;;;38.80;42.80;;;33.43;42.94;95529.00;4972902;28;19916;-53
2023/08/14 08:36:53;;;;;;;;;;;39.00;42.60;;;33.73;42.30;95522.69;4972759;28;19929;-52
2023/08/14 08:39:20;;;;;;;;;;;39.20;42.40;;;33.72;43.14;95527.44;4972154;28;19996;-53
2023/08/14 08:41:48;;;;;;;;;;;39.40;42.10;;;33.96;41.44;95527.47;4973096;28;19919;-55
2023/08/14 08:44:30;;;;;;;;;;;39.50;41.90;;;34.25;42.27;95525.06;4972223;28;19949;-58
2023/08/14 08:47:08;;;;;;;;;;;39.60;41.60;;;34.46;40.79;95523.94;4972648;28;19920;-51
2023/08/14 08:49:35;;;;;;;;;;;39.90;41.50;;;34.59;41.05;95515.81;4971899;28;19945;-53
2023/08/14 08:52:03;;;;;;;;;;;40.10;41.30;;;34.67;40.35;95520.03;4972169;28;20004;-58
2023/08/14 08:54:30;;;;;;;;;;;40.30;41.00;;;34.93;39.86;95521.88;4972729;28;19914;-54
2023/08/14 08:57:00;;;;;;;;;;;40.60;40.80;;;34.86;42.06;95515.72;4971736;28;19909;-56
2023/08/14 08:59:27;;;;;;;;;;;40.80;40.40;;;34.50;39.69;95522.66;4967371;28;19909;-57
2023/08/14 09:01:53;;;;;;;;;;;40.90;39.90;;;34.69;40.70;95515.66;4969241;28;19910;-58
2023/08/14 09:04:19;;;;;;;;;;;41.00;39.70;;;34.83;40.63;95511.03;4970295;28;19918;-55
2023/08/14 09:06:45;;;;;;;;;;;41.00;39.50;;;34.80;39.59;95511.88;4970548;28;19917;-57
2023/08/14 09:09:13;;;;;;;;;;;41.10;39.40;;;35.05;40.20;95516.97;4968580;28;20300;-55
2023/08/14 09:11:40;;;;;;;;;;;41.30;39.20;;;35.31;39.17;95510.47;4970080;28;19910;-55
2023/08/14 09:14:07;;;;;;;;;;;41.40;39.00;;;35.31;38.60;95513.25;4968416;28;20355;-56
2023/08/14 09:16:32;;;;;;;;;;;41.50;38.80;;;35.75;38.41;95513.91;4971713;28;20339;-58
2023/08/14 09:19:00;;;;;;;;;;;41.70;38.60;;;35.68;38.16;95508.53;4972179;28;19909;-56
2023/08/14 09:21:28;;;;;;;;;;;41.90;38.40;;;35.07;40.66;95514.53;5002891;28;20277;-58
2023/08/14 09:23:55;;;;;;;;;;;42.00;38.10;;;35.31;39.04;95515.25;4971369;28;20292;-58
2023/08/14 09:26:22;;;;;;;;;;;42.00;37.90;;;35.51;38.45;95515.19;4971092;28;19914;-58
2023/08/14 09:28:49;;;;;;;;;;;42.00;37.80;;;35.58;39.04;95512.31;4972474;28;20019;-57
2023/08/14 09:31:15;;;;;;;;;;;42.10;37.60;;;35.77;38.76;95521.78;4972507;28;19910;-58
2023/08/14 09:33:43;;;;;;;;;;;42.10;37.40;;;36.18;38.11;95515.69;4971916;28;20369;-56
2023/08/14 09:36:12;;;;;;;;;;;42.20;37.30;;;36.64;36.12;95518.56;4970600;28;19910;-55
2023/08/14 09:38:39;;;;;;;;;;;42.40;37.20;;;36.93;36.57;95519.31;4971172;28;19960;-55
2023/08/14 09:41:05;;;;;;;;;;;42.60;37.00;;;37.06;36.02;95508.28;4971643;28;19910;-53
2023/08/14 09:43:33;;;;;;;;;;;42.70;36.60;;;37.04;35.03;95513.50;4971774;28;20372;-56
2023/08/14 09:46:02;;;;;;;;;;;42.80;36.30;;;37.13;35.66;95515.63;4970879;28;19914;-58
2023/08/14 09:48:46;;;;;;;;;;;42.90;36.10;;;37.24;34.88;95507.78;4972164;28;19995;-57
2023/08/14 09:51:17;;;;;;;;;;;43.10;35.80;;;37.03;35.51;95511.94;4974095;28;19918;-58
2023/08/14 09:53:58;;;;;;;;;;;43.20;35.60;;;37.10;35.19;95510.97;4979692;28;19910;-54
2023/08/14 09:56:26;;;;;;;;;;;43.40;35.30;;;37.39;34.60;95511.72;4959251;28;20008;-57
2023/08/14 09:58:54;;;;;;;;;;;43.60;35.20;;;37.59;35.03;95507.97;4970628;28;19913;-58
2023/08/14 10:01:22;;;;;;;;;;;43.80;34.90;;;37.53;35.03;95513.31;4975791;28;19955;-58
2023/08/14 10:03:53;;;;;;;;;;;44.10;34.60;;;37.45;34.94;95509.13;4974631;28;19914;-58
2023/08/14 10:06:23;;;;;;;;;;;44.30;34.30;;;36.78;37.05;95504.28;4975273;28;19922;-57
2023/08/14 10:08:55;;;;;;;;;;;44.50;34.20;;;36.55;36.51;95505.28;4968163;28;19918;-57
2023/08/14 10:11:28;;;;;;;;;;;44.50;33.80;;;36.99;35.82;95502.94;4974618;28;19917;-57
2023/08/14 10:14:04;;;;;;;;;;;44.50;33.60;;;37.44;36.22;95504.81;4973858;28;19921;-56
2023/08/14 10:16:41;;;;;;;;;;;44.60;33.80;;;37.51;34.20;95499.06;4974506;28;19910;-58
2023/08/14 10:19:16;;;;;;;;;;;44.70;34.30;;;37.61;34.67;95505.53;4963546;28;19945;-58
2023/08/14 10:21:44;;;;;;;;;;;44.70;33.30;;;37.99;34.37;95502.78;4979352;28;20056;-55
2023/08/14 10:24:11;;;;;;;;;;;44.70;33.20;;;38.12;33.56;95509.09;4974201;28;19936;-58
2023/08/14 10:26:38;;;;;;;;;;;44.80;33.20;;;38.31;33.08;95498.19;4973706;28;19979;-57
2023/08/14 10:29:06;;;;;;;;;;;45.00;33.10;;;38.16;33.17;95506.97;4974242;28;20424;-58
2023/08/14 10:31:33;;;;;;;;;;;45.00;33.00;;;38.15;32.98;95499.09;4975332;28;19910;-53
2023/08/14 10:34:00;;;;;;;;;;;45.00;32.90;;;38.15;33.83;95508.22;4972771;28;19916;-58
2023/08/14 10:36:28;;;;;;;;;;;45.00;32.80;;;38.50;33.64;95511.06;5005704;28;19921;-55
2023/08/14 10:38:54;;;;;;;;;;;45.10;32.70;;;38.46;33.62;95507.63;4974102;28;19909;-58
2023/08/14 10:41:20;;;;;;;;;;;45.20;32.60;;;38.11;33.08;95513.13;4975117;28;19910;-58
2023/08/14 10:43:50;;;;;;;;;;;45.30;32.20;;;38.16;32.73;95511.75;4973465;28;19910;-59
2023/08/14 10:46:17;;;;;;;;;;;45.30;32.10;;;38.28;33.12;95512.97;4971834;28;20020;-58
2023/08/14 10:48:48;;;;;;;;;;;45.30;32.00;;;38.40;32.91;95521.31;4975101;28;19909;-55
2023/08/14 10:51:19;;;;;;;;;;;45.40;31.90;;;38.31;33.05;95512.84;4977035;28;19913;-53
2023/08/14 10:53:45;;;;;;;;;;;45.40;31.90;;;38.54;32.07;95513.72;4982576;28;19920;-50
2023/08/14 10:56:12;;;;;;;;;;;45.60;31.60;;;38.49;31.52;95512.28;4973526;28;19913;-49
2023/08/14 10:58:47;;;;;;;;;;;45.60;31.30;;;38.31;30.96;95517.66;4975146;28;19914;-50
2023/08/14 11:01:14;;;;;;;;;;;45.60;31.00;;;38.43;30.84;95516.88;4974990;28;19976;-49
2023/08/14 11:04:03;;;;;;;;;;;45.70;30.80;;;38.61;30.38;95510.69;4973467;28;19979;-50
2023/08/14 11:07:11;;;;;;;;;;;45.70;30.70;;;38.78;29.38;95506.50;4974442;28;19920;-53
2023/08/14 11:09:38;;;;;;;;;;;45.90;30.50;;;38.60;30.35;95509.13;4970174;28;20021;-56
2023/08/14 11:12:08;;;;;;;;;;;46.10;30.40;;;38.52;30.40;95508.63;4973698;28;20403;-56
2023/08/14 11:14:41;;;;;;;;;;;46.10;30.00;;;38.47;31.50;95514.75;5004109;28;19918;-56
2023/08/14 11:17:10;;;;;;;;;;;46.20;29.80;;;38.85;31.41;95513.84;4974358;28;19983;-56